To NAV CANADA Home Page Login to a new session Search on AWWS site Disclaimer Vers la page française équivalente Tips FAQ What's new on the site To the Forecasts and Observations / NOTAM section To "File a Flight Plan" website Publications and other links Update of the User's profile FIC Telephone Numbers My Weather Data Folder Route Weather Data Regional Weather Data Local Weather Data To the Forecasts and Observations / NOTAM section
Request Generated 03/19/2019 at 23:03:10 UTC . Weather information available at that time is displayed.

METAR/TAF

PENTICTON/BC    

METAR CYYF 192300Z 35006KT 15SM SKC 12/M00 A3019 RMK SLP235=
METAR CYYF 192200Z 36006KT 310V030 15SM SKC 12/M01 A3021 RMK SLP244=
METAR CYYF 192100Z 34005KT 15SM FEW250 10/M01 A3024 RMK CI1 CI TR SLP254=

TAF CYYF 191838Z 1919/2007 35007KT P6SM FEW250
RMK NXT FCST BY 200100Z=
Your time UTC time
Weather data provided by Environment Canada and NAV CANADA